Lude, Minnesota
Current Conditions -  °F | °C
As of 2:53 PM on Friday 24 Oct 2014 (Local Time) from KBDE Reporting Station
Scattered Clouds Scattered Clouds  
Wind Chill: 69°   Ceiling: Unl
Heat Index: 69°   Visibility: 10mi
Dew Point: 43°   Wind: 12mph
Humidity: 39%   Direction: 240°WSW
Pressure: 29.66"   Gusts: 23mph
Location:  48.7484°N, 94.9438°W
Report Text: KBDE 241953Z AUTO 24010G20KT 10SM SCT110 21/06 A2966 RMK AO2 SLP045 T02060061 TSNO
Loading
Personal Weather Stations






























Interactive Weather Map
Tropical Storm Tracking
New forecast layout! Learn more

10-Day Weather Forecast

Advertisements
Track Severe Weather on mobile